Decoded Metar for KSYR (SYRACUSE in NY, USA) (IATA:SYR) | Meteo·Mobile Aviation Weather
aviador You're here:

KSYR Decoded Metar

SYRACUSE in NY, USA
Report Time2018-12-17 14:40:00
UTC Time2018-12-17 14:52:02
Flight Rules mvfr MVFR
Wind260° at 14 Gusting to 20 kt
W.Decomp.*RWY 28: 13.9 kt HW 1.7 kt LCW
RWY 33: 7.6 kt HW 11.7 kt LCW
W.Rank260° ranks 1
Current wind is above 260° avg. (9.5)
Visibility9999 m
Phenomena:N/A
Clouds:Overcast 016 Hf
Expected CloudBase > 800 ft AGL from Temp-Dew spread
Ceiling1,600 ft
Temp02°C (ISA -12)
Dew Point00°C (87% RH)
AAT-5.0°C
QNH1008 hPa
Density Alt-807 ft
Elevation417 ft
Report Wrong Elevation
Raw Report
KSYR 171440Z 26014G20KT 7SM OVC016 02/00 A2976=

Extra information for KSYR:More info

Metar Taf Metar & Taf Last 4 Metars F.Rules Stats Wind Profile Meteogram Temp Stats Airport Information Weather charts Add Link Nearby VenuesMetar ALERT Operation Metar Decoded Social comments

AIRNAV info for KSYR